Scroll down
FLIGHT INFORMATION
Omni Air International

OAE311

At Arrival Gate

KTPL
 KSAT
DATE: 2021-03-11
GATE: 
GATE DEPARTURE: 23:21
TAKEOFF: 23:25
DATE: 2021-03-11
GATE:  -
LANDING: 23:59
GATE ARRIVAL: 00:02
FLIGHT DATA
Crew: 
Speed: 
365 kts
Altitude: 
13,603 ft
Stage Length: 
111.6 nm
Block Time: 
0.7 hrs
Flight Time: 
0.6 hrs
Fuel Used: 
9,046 lb
Cleared Route: KTPL SAT RW13R
TRACK DATA
50,000 ft 1,000 kts
AIRCRAFT INFO AND CUMULATIVE STATS
Aircraft Type: 
B772
Registration: 
SELCAL: 
CMBS
MSN/LN: 
36124 / 614
Total Flights: 
1
Total Block Time: 
0.7 hrs
Total Flight Time: 
0.6 hrs
Total Fuel Used: 
9,046 lb
DATALINK LOG | Newest first | Current as of: 2023-02-07 09:09:54
LABEL SEQUENCE CONTENT Dn/Up
QD034900:02 20.8▼ Dn
QC004723:59▼ Dn
QB271523:25▼ Dn
QA231123:21 29.9▼ Dn
2U0739KSAT 112251Z 14013KT 10SM SCT041 OVC055 25/16 A3001 RMK AO2 SLP144 T02500161▲ Up
2S0756KSAT▼ Dn
A30603NO MATCHING FLIGHT DATA AVAILABLE FROM ANSP▲ Up
Q00453[LINK ACK]▲ Up
Q00453[LINK TEST]▼ Dn


AIRCRAFT HISTORY
FLIGHT DATE FLIGHT NO. ORIGIN DESTINATION CLEARED ROUTE BLOCK TIME FLIGHT TIME FUEL USED PILOT
2021-03-11OAE311KTPL KSAT KTPL SAT RW13R0.7 hrs0.6 hrs9,046 lbKyle Weber